createdAt,value
2022-10-17T00:01:02.011Z,6.97
2022-10-17T00:03:36.083Z,7.30
2022-10-17T00:06:13.914Z,7.13
2022-10-17T00:08:42.286Z,6.85
2022-10-17T00:11:20.337Z,6.40
2022-10-17T00:13:53.950Z,8.90
2022-10-17T00:16:30.428Z,7.17
2022-10-17T00:18:57.603Z,8.35
2022-10-17T00:21:26.281Z,8.18
2022-10-17T00:23:55.144Z,7.07
2022-10-17T00:26:22.883Z,6.90
2022-10-17T00:28:51.390Z,9.45
2022-10-17T00:31:20.855Z,6.63
2022-10-17T00:33:48.263Z,8.32
2022-10-17T00:36:19.307Z,6.47
2022-10-17T00:38:50.088Z,8.73
2022-10-17T00:41:20.791Z,6.80
2022-10-17T00:44:05.119Z,7.53
2022-10-17T00:46:42.965Z,9.90
2022-10-17T00:49:12.531Z,7.65
2022-10-17T00:51:50.881Z,8.93
2022-10-17T00:54:23.208Z,6.72
2022-10-17T00:56:52.135Z,6.30
2022-10-17T00:59:22.008Z,5.45
2022-10-17T01:01:57.029Z,7.45
2022-10-17T01:04:24.165Z,5.43
2022-10-17T01:06:51.518Z,11.40
2022-10-17T01:09:18.927Z,7.05
2022-10-17T01:12:07.741Z,5.82
2022-10-17T01:14:56.465Z,6.03
2022-10-17T01:17:33.835Z,6.93
2022-10-17T01:20:25.815Z,6.80
2022-10-17T01:23:14.519Z,4.80
2022-10-17T01:25:57.445Z,6.07
2022-10-17T01:28:48.555Z,5.88
2022-10-17T01:31:19.340Z,5.72
2022-10-17T01:33:54.939Z,5.00
2022-10-17T01:36:31.053Z,4.57
2022-10-17T01:39:42.635Z,6.68
2022-10-17T01:42:27.263Z,6.15
2022-10-17T01:45:04.197Z,6.93
2022-10-17T01:47:33.724Z,5.70
2022-10-17T01:50:11.686Z,7.90
2022-10-17T01:52:43.832Z,5.65
2022-10-17T01:55:16.801Z,5.10
2022-10-17T01:57:50.190Z,6.05
2022-10-17T02:00:22.318Z,6.75
2022-10-17T02:03:00.467Z,7.47
2022-10-17T02:05:35.368Z,5.55
2022-10-17T02:08:02.644Z,7.07
2022-10-17T02:10:52.187Z,5.60
2022-10-17T02:13:38.216Z,5.25
2022-10-17T02:16:40.600Z,5.68
2022-10-17T02:19:22.857Z,6.03
2022-10-17T02:22:04.549Z,5.45
2022-10-17T02:24:57.767Z,6.35
2022-10-17T02:27:48.932Z,8.15
2022-10-17T02:30:29.380Z,6.65
2022-10-17T02:33:03.095Z,5.10
2022-10-17T02:35:35.414Z,6.70
2022-10-17T02:38:05.346Z,7.03
2022-10-17T02:40:33.071Z,7.90
2022-10-17T02:43:03.516Z,6.70
2022-10-17T02:45:35.971Z,6.60
2022-10-17T02:48:19.518Z,5.82
2022-10-17T02:51:28.924Z,5.93
2022-10-17T02:54:11.452Z,6.90
2022-10-17T02:56:57.789Z,6.13
2022-10-17T02:59:27.459Z,4.53
2022-10-17T03:01:54.876Z,5.97
2022-10-17T03:04:22.229Z,8.60
2022-10-17T03:06:49.796Z,5.68
2022-10-17T03:09:19.044Z,8.40
2022-10-17T03:11:46.248Z,6.30
2022-10-17T03:14:13.756Z,5.25
2022-10-17T03:16:41.376Z,5.03
2022-10-17T03:19:08.950Z,7.00
2022-10-17T03:21:37.949Z,6.55
2022-10-17T03:24:07.203Z,4.95
2022-10-17T03:26:34.744Z,4.93
2022-10-17T03:29:03.640Z,6.07
2022-10-17T03:31:31.542Z,8.32
2022-10-17T03:34:02.090Z,10.63
2022-10-17T03:36:29.499Z,9.07
2022-10-17T03:38:57.378Z,4.97
2022-10-17T03:41:24.540Z,4.90
2022-10-17T03:43:54.154Z,7.80
2022-10-17T03:46:21.877Z,4.68
2022-10-17T03:48:49.488Z,8.38
2022-10-17T03:51:16.855Z,6.10
2022-10-17T03:53:49.935Z,6.05
2022-10-17T03:56:22.816Z,7.57
2022-10-17T03:59:14.747Z,8.07
2022-10-17T04:01:44.800Z,6.57
2022-10-17T04:04:13.272Z,6.75
2022-10-17T04:06:40.575Z,5.80
2022-10-17T04:09:07.949Z,6.38
2022-10-17T04:11:44.789Z,8.05
2022-10-17T04:14:13.113Z,8.30
2022-10-17T04:16:40.479Z,5.70
2022-10-17T04:19:14.109Z,4.95
2022-10-17T04:21:46.770Z,6.78
2022-10-17T04:24:15.226Z,5.43
2022-10-17T04:26:51.163Z,5.88
2022-10-17T04:29:24.725Z,6.22
2022-10-17T04:31:57.831Z,6.47
2022-10-17T04:34:36.660Z,5.35
2022-10-17T04:37:06.462Z,8.13
2022-10-17T04:39:34.730Z,6.05
2022-10-17T04:42:04.568Z,7.60
2022-10-17T04:44:33.716Z,6.85
2022-10-17T04:47:01.675Z,8.75
2022-10-17T04:49:29.135Z,5.82
2022-10-17T04:52:02.411Z,6.47
2022-10-17T04:54:38.824Z,5.70
2022-10-17T04:57:09.251Z,6.05
2022-10-17T04:59:37.468Z,6.90
2022-10-17T05:02:34.576Z,7.25
2022-10-17T05:05:03.861Z,7.32
2022-10-17T05:07:31.599Z,6.82
2022-10-17T05:10:02.830Z,7.00
2022-10-17T05:12:31.854Z,11.40
2022-10-17T05:14:59.714Z,7.82
2022-10-17T05:17:30.362Z,6.90
2022-10-17T05:19:57.792Z,9.27
2022-10-17T05:22:24.990Z,6.43
2022-10-17T05:24:52.543Z,9.13
2022-10-17T05:27:19.736Z,7.35
2022-10-17T05:29:47.095Z,6.10
2022-10-17T05:32:20.629Z,6.05
2022-10-17T05:34:48.593Z,5.82
2022-10-17T05:37:15.963Z,4.93
2022-10-17T05:39:50.695Z,5.30
2022-10-17T05:42:18.726Z,6.07
2022-10-17T05:44:47.078Z,5.25
2022-10-17T05:47:16.174Z,5.88
2022-10-17T05:49:48.724Z,4.20
2022-10-17T05:52:21.949Z,6.85
2022-10-17T05:55:06.956Z,4.47
2022-10-17T05:57:34.507Z,8.40
2022-10-17T06:00:04.945Z,8.00
2022-10-17T06:02:42.761Z,8.75
2022-10-17T06:05:12.926Z,7.50
2022-10-17T06:07:40.572Z,7.20
2022-10-17T06:10:09.048Z,5.32
2022-10-17T06:12:36.529Z,7.28
2022-10-17T06:15:04.780Z,4.90
2022-10-17T06:17:32.045Z,6.30
2022-10-17T06:20:00.079Z,5.05
2022-10-17T06:22:27.649Z,5.35
2022-10-17T06:24:56.773Z,8.00
2022-10-17T06:27:24.226Z,5.72
2022-10-17T06:29:51.650Z,5.57
2022-10-17T06:32:18.950Z,8.88
2022-10-17T06:34:47.555Z,4.80
2022-10-17T06:37:15.678Z,6.28
2022-10-17T06:39:43.931Z,5.90
2022-10-17T06:42:13.657Z,5.05
2022-10-17T06:44:51.347Z,6.65
2022-10-17T06:47:33.177Z,5.50
2022-10-17T06:50:07.129Z,7.63
2022-10-17T06:52:57.436Z,4.73
2022-10-17T06:55:43.543Z,4.63
2022-10-17T06:58:24.011Z,6.38
2022-10-17T07:01:10.818Z,5.75
2022-10-17T07:03:39.376Z,8.98
2022-10-17T07:06:07.732Z,6.75
2022-10-17T07:08:34.926Z,8.98
2022-10-17T07:11:15.463Z,4.63
2022-10-17T07:13:43.029Z,7.03
2022-10-17T07:16:10.969Z,4.43
2022-10-17T07:18:40.183Z,4.22
2022-10-17T07:21:08.890Z,5.43
2022-10-17T07:23:37.864Z,5.15
2022-10-17T07:26:08.207Z,6.30
2022-10-17T07:28:39.157Z,8.48
2022-10-17T07:31:20.296Z,5.60
2022-10-17T07:33:47.673Z,6.43
2022-10-17T07:36:15.592Z,6.22
2022-10-17T07:38:43.327Z,7.80
2022-10-17T07:41:16.556Z,8.68
2022-10-17T07:43:47.107Z,6.25
2022-10-17T07:46:16.629Z,5.65
2022-10-17T07:48:45.051Z,4.82
2022-10-17T07:51:12.658Z,8.38
2022-10-17T07:53:42.679Z,4.82
2022-10-17T07:56:12.752Z,10.60
2022-10-17T07:58:40.275Z,6.22
2022-10-17T08:01:15.697Z,12.77
2022-10-17T08:03:48.788Z,9.48
2022-10-17T08:06:19.357Z,10.10
2022-10-17T08:08:46.683Z,6.97
2022-10-17T08:11:17.089Z,7.85
2022-10-17T08:13:44.385Z,11.43
2022-10-17T08:16:14.455Z,8.52
2022-10-17T08:18:43.496Z,5.90
2022-10-17T08:21:13.451Z,7.30
2022-10-17T08:23:41.474Z,6.75
2022-10-17T08:26:14.394Z,10.13
2022-10-17T08:28:41.860Z,6.45
2022-10-17T08:31:19.790Z,8.93
2022-10-17T08:33:48.578Z,5.18
2022-10-17T08:36:19.235Z,9.20
2022-10-17T08:38:52.764Z,5.47
2022-10-17T08:41:29.664Z,5.40
2022-10-17T08:44:11.878Z,4.32
2022-10-17T08:46:47.043Z,6.43
2022-10-17T08:49:47.099Z,5.60
2022-10-17T08:52:45.218Z,6.50
2022-10-17T08:55:44.622Z,6.53
2022-10-17T08:58:26.145Z,6.78
2022-10-17T09:01:26.248Z,6.43
2022-10-17T09:04:15.405Z,8.00
2022-10-17T09:07:09.267Z,8.57
2022-10-17T09:10:03.603Z,6.15
2022-10-17T09:12:44.840Z,5.32
2022-10-17T09:15:31.018Z,5.43
2022-10-17T09:18:28.324Z,5.22
2022-10-17T09:21:11.665Z,6.70
2022-10-17T09:23:47.441Z,7.05
2022-10-17T09:26:15.581Z,5.07
2022-10-17T09:28:43.944Z,7.10
2022-10-17T09:31:13.926Z,5.30
2022-10-17T09:33:54.380Z,6.20
2022-10-17T09:36:34.443Z,6.47
2022-10-17T09:39:05.086Z,7.50
2022-10-17T09:41:46.832Z,6.28
2022-10-17T09:44:17.252Z,5.55
2022-10-17T09:47:14.220Z,7.80
2022-10-17T09:49:43.918Z,9.63
2022-10-17T09:52:27.372Z,8.40
2022-10-17T09:54:58.311Z,7.25
2022-10-17T09:57:26.454Z,9.20
2022-10-17T10:00:00.146Z,6.60
2022-10-17T10:02:30.626Z,6.13
2022-10-17T10:05:06.454Z,9.83
2022-10-17T10:07:39.310Z,8.50
2022-10-17T10:10:23.196Z,9.52
2022-10-17T10:13:15.915Z,7.05
2022-10-17T10:15:46.140Z,9.93
2022-10-17T10:18:25.880Z,7.05
2022-10-17T10:21:16.241Z,10.07
2022-10-17T10:23:45.550Z,9.25
2022-10-17T10:26:25.894Z,9.15
2022-10-17T10:28:53.406Z,10.40
2022-10-17T10:31:28.809Z,8.40
2022-10-17T10:33:57.730Z,13.35
2022-10-17T10:36:25.046Z,11.75
2022-10-17T10:38:57.674Z,8.40
2022-10-17T10:41:27.878Z,12.10
2022-10-17T10:43:56.508Z,52.90
2022-10-17T10:46:28.405Z,8.43
2022-10-17T10:48:59.773Z,6.90
2022-10-17T10:51:41.194Z,11.63
2022-10-17T10:54:21.765Z,8.18
2022-10-17T10:56:54.898Z,7.22
2022-10-17T10:59:51.834Z,9.25
2022-10-17T11:02:40.502Z,10.98
2022-10-17T11:05:43.077Z,11.88
2022-10-17T11:08:34.612Z,7.07
2022-10-17T11:11:17.883Z,8.85
2022-10-17T11:14:08.065Z,9.85
2022-10-17T11:16:42.262Z,10.20
2022-10-17T11:19:15.193Z,7.45
2022-10-17T11:21:56.920Z,10.57
2022-10-17T11:24:28.250Z,8.55
2022-10-17T11:29:36.348Z,12.20
2022-10-17T11:32:11.376Z,10.55
2022-10-17T11:34:45.502Z,11.27
2022-10-17T11:37:22.013Z,10.77
2022-10-17T11:39:56.711Z,13.38
2022-10-17T11:42:30.470Z,11.98
2022-10-17T11:45:04.803Z,10.80
2022-10-17T11:47:45.094Z,14.45
2022-10-17T11:53:21.987Z,11.50
2022-10-17T11:55:51.896Z,12.52
2022-10-17T11:58:40.979Z,11.10
2022-10-17T12:01:08.437Z,9.98
2022-10-17T12:03:47.764Z,11.65
2022-10-17T12:06:40.171Z,11.73
2022-10-17T12:09:37.238Z,11.27
2022-10-17T12:12:04.936Z,14.85
2022-10-17T12:14:47.522Z,14.55
2022-10-17T12:17:34.913Z,11.35
2022-10-17T12:20:27.594Z,12.20
2022-10-17T12:23:10.984Z,11.38
2022-10-17T12:25:48.429Z,15.23
2022-10-17T12:28:39.531Z,14.15
2022-10-17T12:33:46.661Z,14.35
2022-10-17T12:36:25.943Z,11.40
2022-10-17T12:39:02.374Z,12.50
2022-10-17T12:41:38.916Z,14.20
2022-10-17T12:44:15.550Z,13.60
2022-10-17T12:46:51.964Z,10.65
2022-10-17T12:49:40.746Z,14.32
2022-10-17T12:52:30.035Z,11.02
2022-10-17T12:55:18.313Z,9.68
2022-10-17T12:58:08.399Z,11.27
2022-10-17T13:01:18.872Z,9.73
2022-10-17T13:03:49.232Z,8.70
2022-10-17T13:06:22.456Z,10.05
2022-10-17T13:09:04.144Z,13.60
2022-10-17T13:11:36.289Z,11.65
2022-10-17T13:14:12.514Z,15.55
2022-10-17T13:17:02.208Z,13.73
2022-10-17T13:19:44.762Z,13.98
2022-10-17T13:22:17.489Z,19.65
2022-10-17T13:24:45.644Z,14.35
2022-10-17T13:27:33.377Z,15.32
2022-10-17T13:30:03.638Z,15.60
2022-10-17T13:32:39.716Z,14.60
2022-10-17T13:35:17.217Z,14.75
2022-10-17T13:37:51.547Z,15.38
2022-10-17T13:40:44.609Z,16.90
2022-10-17T13:43:19.943Z,23.60
2022-10-17T13:45:51.641Z,13.60
2022-10-17T13:48:30.106Z,12.38
2022-10-17T13:51:02.809Z,16.55
2022-10-17T13:53:40.009Z,11.57
2022-10-17T13:56:34.713Z,13.30
2022-10-17T13:59:17.498Z,11.60
2022-10-17T14:01:45.290Z,14.73
2022-10-17T14:04:19.759Z,10.50
2022-10-17T14:06:51.120Z,9.65
2022-10-17T14:09:25.924Z,9.25
2022-10-17T14:12:02.638Z,9.23
2022-10-17T14:14:41.675Z,13.35
2022-10-17T14:17:25.298Z,11.88
2022-10-17T14:20:34.070Z,11.60
2022-10-17T14:23:04.504Z,12.05
2022-10-17T14:25:37.456Z,14.13
2022-10-17T14:28:09.579Z,13.50
2022-10-17T14:30:56.685Z,14.98
2022-10-17T14:33:29.024Z,14.73
2022-10-17T14:35:58.588Z,13.35
2022-10-17T14:38:27.750Z,15.43
2022-10-17T14:43:59.746Z,14.32
2022-10-17T14:46:27.932Z,14.80
2022-10-17T14:49:02.563Z,14.73
2022-10-17T14:51:39.953Z,17.75
2022-10-17T14:54:27.396Z,14.85
2022-10-17T14:56:55.019Z,18.00
2022-10-17T14:59:51.503Z,20.80
2022-10-17T15:02:12.245Z,17.85
2022-10-17T15:04:39.628Z,22.17
2022-10-17T15:07:06.892Z,25.33
2022-10-17T15:09:34.330Z,15.43
2022-10-17T15:12:04.232Z,20.33
2022-10-17T15:14:31.740Z,18.83
2022-10-17T15:16:58.917Z,16.48
2022-10-17T15:19:30.824Z,17.63
2022-10-17T15:22:10.104Z,21.05
2022-10-17T15:25:03.768Z,18.15
2022-10-17T15:27:38.828Z,16.30
2022-10-17T15:30:29.178Z,21.20
2022-10-17T15:33:08.759Z,17.73
2022-10-17T15:35:50.931Z,16.60
2022-10-17T15:38:31.245Z,17.40
2022-10-17T15:41:14.668Z,18.63
2022-10-17T15:43:46.271Z,17.08
2022-10-17T15:46:32.246Z,24.67
2022-10-17T15:49:12.431Z,20.60
2022-10-17T15:51:49.329Z,20.60
2022-10-17T15:54:21.528Z,18.83
2022-10-17T15:56:54.119Z,19.77
2022-10-17T15:59:24.445Z,20.05
2022-10-17T16:01:52.098Z,23.17
2022-10-17T16:04:19.293Z,20.48
2022-10-17T16:06:46.689Z,23.00
2022-10-17T16:09:13.882Z,22.17
2022-10-17T16:11:43.412Z,20.92
2022-10-17T16:14:13.379Z,22.98
2022-10-17T16:16:40.940Z,22.38
2022-10-17T16:19:08.855Z,23.75
2022-10-17T16:21:39.076Z,25.58
2022-10-17T16:24:06.516Z,26.35
2022-10-17T16:26:33.949Z,27.23
2022-10-17T16:29:03.540Z,23.77
2022-10-17T16:31:34.051Z,24.63
2022-10-17T16:34:02.895Z,26.73
2022-10-17T16:36:30.574Z,30.20
2022-10-17T16:38:58.257Z,30.80
2022-10-17T16:41:39.598Z,29.67
2022-10-17T16:44:09.184Z,29.50
2022-10-17T16:46:37.735Z,32.22
2022-10-17T16:49:05.573Z,34.80
2022-10-17T16:51:36.736Z,35.50
2022-10-17T16:54:04.701Z,33.90
2022-10-17T16:56:33.021Z,34.40
2022-10-17T16:59:01.368Z,34.40
2022-10-17T17:01:32.112Z,36.28
2022-10-17T17:03:59.359Z,40.65
2022-10-17T17:06:29.305Z,33.10
2022-10-17T17:08:57.575Z,39.83
2022-10-17T17:11:27.325Z,33.85
2022-10-17T17:13:59.073Z,35.00
2022-10-17T17:16:27.607Z,33.75
2022-10-17T17:19:00.559Z,35.85
2022-10-17T17:21:28.048Z,36.63
2022-10-17T17:23:58.853Z,37.78
2022-10-17T17:26:29.769Z,35.97
2022-10-17T17:28:59.276Z,33.15
2022-10-17T17:31:29.469Z,38.20
2022-10-17T17:33:57.757Z,39.97
2022-10-17T17:36:30.982Z,37.17
2022-10-17T17:39:00.368Z,37.58
2022-10-17T17:41:28.490Z,38.42
2022-10-17T17:43:56.209Z,41.85
2022-10-17T17:46:24.897Z,35.83
2022-10-17T17:48:53.651Z,39.28
2022-10-17T17:51:28.451Z,36.28
2022-10-17T17:53:59.664Z,37.25
2022-10-17T17:56:29.002Z,33.50
2022-10-17T17:59:01.273Z,34.10
2022-10-17T18:01:35.234Z,36.63
2022-10-17T18:04:04.643Z,37.45
2022-10-17T18:06:32.032Z,35.00
2022-10-17T18:08:59.497Z,33.03
2022-10-17T18:11:27.736Z,32.47
2022-10-17T18:13:57.434Z,35.35
2022-10-17T18:16:26.338Z,30.80
2022-10-17T18:18:53.899Z,30.95
2022-10-17T18:21:22.011Z,29.20
2022-10-17T18:23:49.739Z,32.85
2022-10-17T18:26:17.599Z,35.65
2022-10-17T18:28:45.090Z,31.55
2022-10-17T18:31:35.645Z,25.30
2022-10-17T18:34:04.785Z,29.67
2022-10-17T18:36:33.667Z,31.63
2022-10-17T18:39:02.138Z,31.92
2022-10-17T18:41:30.121Z,27.02
2022-10-17T18:43:58.040Z,30.42
2022-10-17T18:46:29.037Z,27.75
2022-10-17T18:48:56.541Z,25.67
2022-10-17T18:51:25.932Z,25.88
2022-10-17T18:53:55.289Z,28.17
2022-10-17T18:56:23.463Z,24.10
2022-10-17T18:58:51.041Z,26.92
2022-10-17T19:01:20.922Z,24.17
2022-10-17T19:03:49.702Z,25.13
2022-10-17T19:06:20.662Z,23.30
2022-10-17T19:08:48.546Z,24.27
2022-10-17T19:11:19.056Z,22.38
2022-10-17T19:13:47.554Z,30.95
2022-10-17T19:16:17.695Z,25.65
2022-10-17T19:18:52.615Z,22.17
2022-10-17T19:21:21.954Z,20.55
2022-10-17T19:24:00.507Z,22.38
2022-10-17T19:26:30.460Z,21.27
2022-10-17T19:29:00.397Z,21.58
2022-10-17T19:31:31.718Z,21.10
2022-10-17T19:33:59.939Z,20.02
2022-10-17T19:36:33.263Z,19.42
2022-10-17T19:39:04.522Z,19.05
2022-10-17T19:41:32.836Z,20.97
2022-10-17T19:44:00.663Z,21.33
2022-10-17T19:46:29.726Z,21.13
2022-10-17T19:48:57.454Z,19.48
2022-10-17T19:51:26.396Z,19.83
2022-10-17T19:53:55.634Z,19.70
2022-10-17T19:56:25.006Z,18.25
2022-10-17T19:58:54.440Z,18.63
2022-10-17T20:01:27.401Z,18.67
2022-10-17T20:03:55.450Z,21.85
2022-10-17T20:06:23.745Z,23.48
2022-10-17T20:08:51.496Z,21.67
2022-10-17T20:11:25.435Z,20.63
2022-10-17T20:13:54.059Z,20.15
2022-10-17T20:16:24.386Z,18.65
2022-10-17T20:18:54.702Z,21.65
2022-10-17T20:21:27.285Z,19.40
2022-10-17T20:23:54.971Z,19.63
2022-10-17T20:26:37.049Z,20.60
2022-10-17T20:29:10.832Z,17.52
2022-10-17T20:31:40.019Z,16.90
2022-10-17T20:34:07.255Z,17.77
2022-10-17T20:36:37.505Z,21.60
2022-10-17T20:39:06.036Z,16.48
2022-10-17T20:41:33.881Z,18.08
2022-10-17T20:44:01.294Z,16.88
2022-10-17T20:46:36.964Z,16.02
2022-10-17T20:49:06.395Z,19.05
2022-10-17T20:51:34.823Z,15.98
2022-10-17T20:54:03.128Z,21.67
2022-10-17T20:56:32.258Z,15.93
2022-10-17T20:59:05.653Z,15.18
2022-10-17T21:01:34.707Z,17.65
2022-10-17T21:04:21.239Z,17.58
2022-10-17T21:06:51.349Z,13.90
2022-10-17T21:09:18.925Z,17.45
2022-10-17T21:11:46.382Z,16.40
2022-10-17T21:14:16.750Z,16.73
2022-10-17T21:16:44.258Z,14.38
2022-10-17T21:19:12.321Z,17.67
2022-10-17T21:21:42.484Z,15.30
2022-10-17T21:24:16.868Z,15.98
2022-10-17T21:26:45.723Z,17.30
2022-10-17T21:29:14.004Z,15.80
2022-10-17T21:31:44.168Z,14.85
2022-10-17T21:34:14.152Z,15.82
2022-10-17T21:36:42.164Z,12.95
2022-10-17T21:39:11.199Z,14.85
2022-10-17T21:41:38.756Z,16.65
2022-10-17T21:44:14.934Z,18.08
2022-10-17T21:46:43.552Z,16.92
2022-10-17T21:49:16.049Z,13.27
2022-10-17T21:51:44.789Z,15.95
2022-10-17T21:54:12.294Z,13.15
2022-10-17T21:56:40.245Z,15.95
2022-10-17T21:59:07.883Z,15.60
2022-10-17T22:01:38.667Z,16.90
2022-10-17T22:04:08.924Z,15.00
2022-10-17T22:06:40.114Z,14.80
2022-10-17T22:11:37.573Z,15.27
2022-10-17T22:14:12.588Z,13.77
2022-10-17T22:16:40.972Z,13.32
2022-10-17T22:19:08.884Z,15.23
2022-10-17T22:21:37.573Z,15.63
2022-10-17T22:24:10.381Z,13.85
2022-10-17T22:26:38.313Z,14.45
2022-10-17T22:29:07.233Z,14.00
2022-10-17T22:31:35.279Z,15.85
2022-10-17T22:34:05.103Z,13.60
2022-10-17T22:36:33.891Z,15.17
2022-10-17T22:39:01.434Z,14.43
2022-10-17T22:41:29.001Z,15.10
2022-10-17T22:43:56.461Z,11.63
2022-10-17T22:46:24.173Z,15.05
2022-10-17T22:48:51.377Z,14.00
2022-10-17T22:51:18.850Z,13.38
2022-10-17T22:53:46.105Z,12.93
2022-10-17T22:56:21.585Z,13.80
2022-10-17T22:58:49.231Z,14.98
2022-10-17T23:01:22.426Z,13.50
2022-10-17T23:03:50.976Z,14.23
2022-10-17T23:06:18.910Z,13.80
2022-10-17T23:08:46.225Z,14.38
2022-10-17T23:11:14.027Z,19.30
2022-10-17T23:13:41.549Z,14.95
2022-10-17T23:16:09.231Z,15.23
2022-10-17T23:18:38.061Z,16.45
2022-10-17T23:21:06.721Z,12.70
2022-10-17T23:23:34.031Z,12.98
2022-10-17T23:26:12.884Z,15.02
2022-10-17T23:28:42.483Z,12.68
2022-10-17T23:31:20.958Z,13.32
2022-10-17T23:33:49.759Z,15.13
2022-10-17T23:36:19.726Z,12.98
2022-10-17T23:38:48.262Z,16.77
2022-10-17T23:41:16.391Z,13.77
2022-10-17T23:43:44.040Z,11.38
2022-10-17T23:46:12.395Z,15.93
2022-10-17T23:48:40.358Z,12.23
2022-10-17T23:51:09.074Z,12.90
2022-10-17T23:53:37.611Z,15.80
2022-10-17T23:56:06.193Z,12.88
2022-10-17T23:58:33.746Z,13.60
